sensor_id;sensor_type;location;lat;lon;timestamp;P1;durP1;ratioP1;P2;durP2;ratioP2
21360;SDS011;10839;43.206;23.550;2023-06-26T00:01:24;17.25;;;13.13;;
21360;SDS011;10839;43.206;23.550;2023-06-26T00:03:55;16.48;;;12.95;;
21360;SDS011;10839;43.206;23.550;2023-06-26T00:06:21;17.17;;;12.40;;
21360;SDS011;10839;43.206;23.550;2023-06-26T00:08:50;19.38;;;13.68;;
21360;SDS011;10839;43.206;23.550;2023-06-26T00:11:16;19.55;;;13.23;;
21360;SDS011;10839;43.206;23.550;2023-06-26T00:13:42;19.60;;;13.20;;
21360;SDS011;10839;43.206;23.550;2023-06-26T00:16:08;14.20;;;11.68;;
21360;SDS011;10839;43.206;23.550;2023-06-26T00:18:34;14.68;;;11.63;;
21360;SDS011;10839;43.206;23.550;2023-06-26T00:21:00;17.30;;;11.90;;
21360;SDS011;10839;43.206;23.550;2023-06-26T00:23:25;14.18;;;11.40;;
21360;SDS011;10839;43.206;23.550;2023-06-26T00:25:53;12.80;;;10.90;;
21360;SDS011;10839;43.206;23.550;2023-06-26T00:28:19;14.10;;;10.90;;
21360;SDS011;10839;43.206;23.550;2023-06-26T00:30:45;14.07;;;11.45;;
21360;SDS011;10839;43.206;23.550;2023-06-26T00:33:11;15.10;;;12.02;;
21360;SDS011;10839;43.206;23.550;2023-06-26T00:35:37;15.90;;;11.32;;
21360;SDS011;10839;43.206;23.550;2023-06-26T00:38:03;16.65;;;11.80;;
21360;SDS011;10839;43.206;23.550;2023-06-26T00:40:29;16.40;;;11.52;;
21360;SDS011;10839;43.206;23.550;2023-06-26T00:42:55;16.20;;;11.65;;
21360;SDS011;10839;43.206;23.550;2023-06-26T00:45:21;14.20;;;10.77;;
21360;SDS011;10839;43.206;23.550;2023-06-26T00:47:47;13.07;;;10.18;;
21360;SDS011;10839;43.206;23.550;2023-06-26T00:50:14;12.85;;;9.85;;
21360;SDS011;10839;43.206;23.550;2023-06-26T00:52:41;14.07;;;10.40;;
21360;SDS011;10839;43.206;23.550;2023-06-26T00:55:08;14.95;;;10.50;;
21360;SDS011;10839;43.206;23.550;2023-06-26T00:57:35;12.45;;;9.85;;
21360;SDS011;10839;43.206;23.550;2023-06-26T01:00:02;12.77;;;9.80;;
21360;SDS011;10839;43.206;23.550;2023-06-26T01:02:29;12.40;;;8.90;;
21360;SDS011;10839;43.206;23.550;2023-06-26T01:05:01;13.52;;;9.35;;
21360;SDS011;10839;43.206;23.550;2023-06-26T01:07:34;13.90;;;9.00;;
21360;SDS011;10839;43.206;23.550;2023-06-26T01:10:02;12.50;;;9.43;;
21360;SDS011;10839;43.206;23.550;2023-06-26T01:12:30;11.90;;;7.70;;
21360;SDS011;10839;43.206;23.550;2023-06-26T01:14:59;10.60;;;8.27;;
21360;SDS011;10839;43.206;23.550;2023-06-26T01:17:28;9.63;;;8.20;;
21360;SDS011;10839;43.206;23.550;2023-06-26T01:20:00;11.82;;;7.93;;
21360;SDS011;10839;43.206;23.550;2023-06-26T01:25:38;10.15;;;7.65;;
21360;SDS011;10839;43.206;23.550;2023-06-26T01:28:17;9.48;;;7.53;;
21360;SDS011;10839;43.206;23.550;2023-06-26T01:30:45;14.45;;;7.75;;
21360;SDS011;10839;43.206;23.550;2023-06-26T01:33:12;9.75;;;7.00;;
21360;SDS011;10839;43.206;23.550;2023-06-26T01:35:40;11.35;;;8.25;;
21360;SDS011;10839;43.206;23.550;2023-06-26T01:38:13;10.02;;;7.35;;
21360;SDS011;10839;43.206;23.550;2023-06-26T01:40:40;10.40;;;7.47;;
21360;SDS011;10839;43.206;23.550;2023-06-26T01:43:08;10.77;;;7.03;;
21360;SDS011;10839;43.206;23.550;2023-06-26T01:45:41;10.65;;;8.02;;
21360;SDS011;10839;43.206;23.550;2023-06-26T01:48:09;11.45;;;8.07;;
21360;SDS011;10839;43.206;23.550;2023-06-26T01:50:40;8.23;;;6.80;;
21360;SDS011;10839;43.206;23.550;2023-06-26T01:53:10;11.48;;;7.63;;
21360;SDS011;10839;43.206;23.550;2023-06-26T01:58:18;9.43;;;7.03;;
21360;SDS011;10839;43.206;23.550;2023-06-26T02:00:48;10.25;;;7.65;;
21360;SDS011;10839;43.206;23.550;2023-06-26T02:03:14;11.35;;;7.65;;
21360;SDS011;10839;43.206;23.550;2023-06-26T02:05:40;10.85;;;6.80;;
21360;SDS011;10839;43.206;23.550;2023-06-26T02:08:07;12.50;;;7.90;;
21360;SDS011;10839;43.206;23.550;2023-06-26T02:10:34;11.95;;;8.75;;
21360;SDS011;10839;43.206;23.550;2023-06-26T02:13:00;45.78;;;32.45;;
21360;SDS011;10839;43.206;23.550;2023-06-26T02:15:26;49.50;;;35.05;;
21360;SDS011;10839;43.206;23.550;2023-06-26T02:17:53;19.15;;;14.15;;
21360;SDS011;10839;43.206;23.550;2023-06-26T02:20:19;13.75;;;9.65;;
21360;SDS011;10839;43.206;23.550;2023-06-26T02:22:45;13.88;;;8.13;;
21360;SDS011;10839;43.206;23.550;2023-06-26T02:25:12;13.02;;;7.60;;
21360;SDS011;10839;43.206;23.550;2023-06-26T02:27:40;43.50;;;27.75;;
21360;SDS011;10839;43.206;23.550;2023-06-26T02:30:08;25.42;;;17.55;;
21360;SDS011;10839;43.206;23.550;2023-06-26T02:32:35;44.42;;;29.63;;
21360;SDS011;10839;43.206;23.550;2023-06-26T02:35:02;17.70;;;13.25;;
21360;SDS011;10839;43.206;23.550;2023-06-26T02:37:28;14.80;;;9.18;;
21360;SDS011;10839;43.206;23.550;2023-06-26T02:39:54;29.35;;;21.13;;
21360;SDS011;10839;43.206;23.550;2023-06-26T02:42:19;38.97;;;27.40;;
21360;SDS011;10839;43.206;23.550;2023-06-26T02:44:46;24.35;;;17.95;;
21360;SDS011;10839;43.206;23.550;2023-06-26T02:47:12;12.73;;;8.63;;
21360;SDS011;10839;43.206;23.550;2023-06-26T02:49:41;9.80;;;7.57;;
21360;SDS011;10839;43.206;23.550;2023-06-26T02:52:08;9.45;;;7.07;;
21360;SDS011;10839;43.206;23.550;2023-06-26T02:54:34;14.95;;;7.00;;
21360;SDS011;10839;43.206;23.550;2023-06-26T02:57:03;10.45;;;6.65;;
21360;SDS011;10839;43.206;23.550;2023-06-26T02:59:31;10.40;;;6.88;;
21360;SDS011;10839;43.206;23.550;2023-06-26T03:01:58;10.95;;;7.10;;
21360;SDS011;10839;43.206;23.550;2023-06-26T03:04:37;9.30;;;6.93;;
21360;SDS011;10839;43.206;23.550;2023-06-26T03:07:06;9.50;;;6.57;;
21360;SDS011;10839;43.206;23.550;2023-06-26T03:09:32;13.95;;;6.82;;
21360;SDS011;10839;43.206;23.550;2023-06-26T03:11:58;10.55;;;5.97;;
21360;SDS011;10839;43.206;23.550;2023-06-26T03:14:25;9.32;;;6.22;;
21360;SDS011;10839;43.206;23.550;2023-06-26T03:16:52;9.55;;;5.72;;
21360;SDS011;10839;43.206;23.550;2023-06-26T03:19:21;13.27;;;9.07;;
21360;SDS011;10839;43.206;23.550;2023-06-26T03:22:16;22.80;;;15.05;;
21360;SDS011;10839;43.206;23.550;2023-06-26T03:24:43;43.15;;;30.42;;
21360;SDS011;10839;43.206;23.550;2023-06-26T03:27:09;25.00;;;16.85;;
21360;SDS011;10839;43.206;23.550;2023-06-26T03:29:35;14.70;;;9.10;;
21360;SDS011;10839;43.206;23.550;2023-06-26T03:32:02;9.75;;;6.65;;
21360;SDS011;10839;43.206;23.550;2023-06-26T03:34:29;10.48;;;6.32;;
21360;SDS011;10839;43.206;23.550;2023-06-26T03:36:55;9.13;;;5.80;;
21360;SDS011;10839;43.206;23.550;2023-06-26T03:39:22;9.05;;;5.40;;
21360;SDS011;10839;43.206;23.550;2023-06-26T03:41:48;6.93;;;5.57;;
21360;SDS011;10839;43.206;23.550;2023-06-26T03:44:13;8.75;;;5.55;;
21360;SDS011;10839;43.206;23.550;2023-06-26T03:46:44;7.65;;;5.65;;
21360;SDS011;10839;43.206;23.550;2023-06-26T03:49:12;6.78;;;5.03;;
21360;SDS011;10839;43.206;23.550;2023-06-26T03:51:38;8.18;;;5.40;;
21360;SDS011;10839;43.206;23.550;2023-06-26T03:54:04;6.68;;;5.13;;
21360;SDS011;10839;43.206;23.550;2023-06-26T03:56:30;9.63;;;5.55;;
21360;SDS011;10839;43.206;23.550;2023-06-26T03:58:56;13.30;;;8.45;;
21360;SDS011;10839;43.206;23.550;2023-06-26T04:01:21;49.90;;;34.88;;
21360;SDS011;10839;43.206;23.550;2023-06-26T04:03:48;71.55;;;43.53;;
21360;SDS011;10839;43.206;23.550;2023-06-26T04:06:14;28.38;;;17.20;;
21360;SDS011;10839;43.206;23.550;2023-06-26T04:08:40;12.55;;;10.07;;
21360;SDS011;10839;43.206;23.550;2023-06-26T04:11:06;9.68;;;6.90;;
21360;SDS011;10839;43.206;23.550;2023-06-26T04:13:32;7.30;;;5.60;;
21360;SDS011;10839;43.206;23.550;2023-06-26T04:15:58;9.13;;;6.68;;
21360;SDS011;10839;43.206;23.550;2023-06-26T04:18:23;10.05;;;6.68;;
21360;SDS011;10839;43.206;23.550;2023-06-26T04:21:06;7.97;;;7.18;;
21360;SDS011;10839;43.206;23.550;2023-06-26T04:23:37;8.80;;;7.03;;
21360;SDS011;10839;43.206;23.550;2023-06-26T04:26:05;7.43;;;6.50;;
21360;SDS011;10839;43.206;23.550;2023-06-26T04:28:35;12.70;;;6.88;;
21360;SDS011;10839;43.206;23.550;2023-06-26T04:31:02;9.77;;;6.90;;
21360;SDS011;10839;43.206;23.550;2023-06-26T04:33:31;7.72;;;5.90;;
21360;SDS011;10839;43.206;23.550;2023-06-26T04:35:57;11.27;;;6.82;;
21360;SDS011;10839;43.206;23.550;2023-06-26T04:38:23;18.48;;;13.15;;
21360;SDS011;10839;43.206;23.550;2023-06-26T04:40:48;25.48;;;16.67;;
21360;SDS011;10839;43.206;23.550;2023-06-26T04:43:14;29.13;;;15.98;;
21360;SDS011;10839;43.206;23.550;2023-06-26T04:45:40;17.35;;;12.35;;
21360;SDS011;10839;43.206;23.550;2023-06-26T04:48:06;14.13;;;8.00;;
21360;SDS011;10839;43.206;23.550;2023-06-26T04:50:32;10.25;;;8.18;;
21360;SDS011;10839;43.206;23.550;2023-06-26T04:52:58;12.30;;;8.25;;
21360;SDS011;10839;43.206;23.550;2023-06-26T04:55:24;14.73;;;8.13;;
21360;SDS011;10839;43.206;23.550;2023-06-26T04:57:52;9.50;;;8.05;;
21360;SDS011;10839;43.206;23.550;2023-06-26T05:00:18;13.00;;;7.70;;
21360;SDS011;10839;43.206;23.550;2023-06-26T05:02:44;12.48;;;8.48;;
21360;SDS011;10839;43.206;23.550;2023-06-26T05:05:11;12.80;;;7.50;;
21360;SDS011;10839;43.206;23.550;2023-06-26T05:07:37;10.40;;;7.03;;
21360;SDS011;10839;43.206;23.550;2023-06-26T05:10:03;10.70;;;7.13;;
21360;SDS011;10839;43.206;23.550;2023-06-26T05:12:30;9.38;;;7.05;;
21360;SDS011;10839;43.206;23.550;2023-06-26T05:14:55;10.48;;;7.35;;
21360;SDS011;10839;43.206;23.550;2023-06-26T05:17:21;13.25;;;7.55;;
21360;SDS011;10839;43.206;23.550;2023-06-26T05:19:48;12.02;;;7.20;;
21360;SDS011;10839;43.206;23.550;2023-06-26T05:22:14;10.10;;;7.32;;
21360;SDS011;10839;43.206;23.550;2023-06-26T05:24:42;11.85;;;7.22;;
21360;SDS011;10839;43.206;23.550;2023-06-26T05:27:12;10.07;;;8.02;;
21360;SDS011;10839;43.206;23.550;2023-06-26T05:29:44;12.00;;;7.50;;
21360;SDS011;10839;43.206;23.550;2023-06-26T05:32:11;12.57;;;7.15;;
21360;SDS011;10839;43.206;23.550;2023-06-26T05:34:43;9.32;;;7.60;;
21360;SDS011;10839;43.206;23.550;2023-06-26T05:37:22;13.35;;;8.85;;
21360;SDS011;10839;43.206;23.550;2023-06-26T05:39:50;10.20;;;8.35;;
21360;SDS011;10839;43.206;23.550;2023-06-26T05:42:17;8.20;;;6.88;;
21360;SDS011;10839;43.206;23.550;2023-06-26T05:44:43;9.82;;;7.07;;
21360;SDS011;10839;43.206;23.550;2023-06-26T05:47:08;9.25;;;6.55;;
21360;SDS011;10839;43.206;23.550;2023-06-26T05:49:34;10.20;;;7.03;;
21360;SDS011;10839;43.206;23.550;2023-06-26T05:52:01;14.20;;;6.88;;
21360;SDS011;10839;43.206;23.550;2023-06-26T05:54:27;9.82;;;6.75;;
21360;SDS011;10839;43.206;23.550;2023-06-26T05:56:55;7.22;;;6.10;;
21360;SDS011;10839;43.206;23.550;2023-06-26T05:59:22;9.35;;;6.63;;
21360;SDS011;10839;43.206;23.550;2023-06-26T06:01:48;9.80;;;6.65;;
21360;SDS011;10839;43.206;23.550;2023-06-26T06:04:14;13.40;;;6.22;;
21360;SDS011;10839;43.206;23.550;2023-06-26T06:06:41;8.70;;;5.63;;
21360;SDS011;10839;43.206;23.550;2023-06-26T06:09:07;9.98;;;5.60;;
21360;SDS011;10839;43.206;23.550;2023-06-26T06:11:33;8.70;;;5.95;;
21360;SDS011;10839;43.206;23.550;2023-06-26T06:13:58;11.68;;;5.97;;
21360;SDS011;10839;43.206;23.550;2023-06-26T06:16:25;9.30;;;7.13;;
21360;SDS011;10839;43.206;23.550;2023-06-26T06:18:54;11.07;;;5.72;;
21360;SDS011;10839;43.206;23.550;2023-06-26T06:21:20;8.73;;;5.90;;
21360;SDS011;10839;43.206;23.550;2023-06-26T06:23:46;10.48;;;6.18;;
21360;SDS011;10839;43.206;23.550;2023-06-26T06:26:12;6.15;;;5.53;;
21360;SDS011;10839;43.206;23.550;2023-06-26T06:28:38;8.10;;;5.38;;
21360;SDS011;10839;43.206;23.550;2023-06-26T06:31:05;10.45;;;5.95;;
21360;SDS011;10839;43.206;23.550;2023-06-26T06:33:31;10.93;;;8.13;;
21360;SDS011;10839;43.206;23.550;2023-06-26T06:35:57;12.75;;;8.18;;
21360;SDS011;10839;43.206;23.550;2023-06-26T06:38:23;7.95;;;5.57;;
21360;SDS011;10839;43.206;23.550;2023-06-26T06:40:48;8.85;;;5.95;;
21360;SDS011;10839;43.206;23.550;2023-06-26T06:43:14;8.30;;;5.63;;
21360;SDS011;10839;43.206;23.550;2023-06-26T06:45:40;9.93;;;6.38;;
21360;SDS011;10839;43.206;23.550;2023-06-26T06:48:06;9.07;;;5.90;;
21360;SDS011;10839;43.206;23.550;2023-06-26T06:50:32;11.90;;;6.05;;
21360;SDS011;10839;43.206;23.550;2023-06-26T06:52:58;8.52;;;6.15;;
21360;SDS011;10839;43.206;23.550;2023-06-26T06:55:24;10.00;;;5.60;;
21360;SDS011;10839;43.206;23.550;2023-06-26T06:57:51;8.20;;;5.97;;
21360;SDS011;10839;43.206;23.550;2023-06-26T07:00:17;10.02;;;5.13;;
21360;SDS011;10839;43.206;23.550;2023-06-26T07:02:44;5.53;;;5.00;;
21360;SDS011;10839;43.206;23.550;2023-06-26T07:05:11;5.88;;;5.28;;
21360;SDS011;10839;43.206;23.550;2023-06-26T07:07:37;5.88;;;4.93;;
21360;SDS011;10839;43.206;23.550;2023-06-26T07:12:33;5.20;;;4.72;;
21360;SDS011;10839;43.206;23.550;2023-06-26T07:15:03;8.70;;;5.22;;
21360;SDS011;10839;43.206;23.550;2023-06-26T07:17:30;7.07;;;5.45;;
21360;SDS011;10839;43.206;23.550;2023-06-26T07:19:56;6.80;;;5.60;;
21360;SDS011;10839;43.206;23.550;2023-06-26T07:22:23;10.25;;;5.60;;
21360;SDS011;10839;43.206;23.550;2023-06-26T07:24:48;9.32;;;5.88;;
21360;SDS011;10839;43.206;23.550;2023-06-26T07:27:17;10.48;;;6.03;;
21360;SDS011;10839;43.206;23.550;2023-06-26T07:29:44;6.05;;;5.28;;
21360;SDS011;10839;43.206;23.550;2023-06-26T07:32:11;9.32;;;6.03;;
21360;SDS011;10839;43.206;23.550;2023-06-26T07:34:37;5.75;;;4.78;;
21360;SDS011;10839;43.206;23.550;2023-06-26T07:37:03;6.80;;;4.93;;
21360;SDS011;10839;43.206;23.550;2023-06-26T07:39:29;11.77;;;5.28;;
21360;SDS011;10839;43.206;23.550;2023-06-26T07:41:55;6.78;;;4.88;;
21360;SDS011;10839;43.206;23.550;2023-06-26T07:44:24;9.00;;;5.05;;
21360;SDS011;10839;43.206;23.550;2023-06-26T07:46:51;8.45;;;7.75;;
21360;SDS011;10839;43.206;23.550;2023-06-26T07:49:16;7.20;;;5.55;;
21360;SDS011;10839;43.206;23.550;2023-06-26T07:51:42;5.65;;;5.15;;
21360;SDS011;10839;43.206;23.550;2023-06-26T07:54:08;7.00;;;5.10;;
21360;SDS011;10839;43.206;23.550;2023-06-26T07:56:35;11.48;;;5.72;;
21360;SDS011;10839;43.206;23.550;2023-06-26T07:59:21;10.05;;;5.88;;
21360;SDS011;10839;43.206;23.550;2023-06-26T08:01:49;5.65;;;5.15;;
21360;SDS011;10839;43.206;23.550;2023-06-26T08:04:20;5.85;;;5.35;;
21360;SDS011;10839;43.206;23.550;2023-06-26T08:06:52;7.10;;;5.22;;
21360;SDS011;10839;43.206;23.550;2023-06-26T08:09:20;5.97;;;5.40;;
21360;SDS011;10839;43.206;23.550;2023-06-26T08:11:46;10.20;;;5.40;;
21360;SDS011;10839;43.206;23.550;2023-06-26T08:14:13;7.60;;;5.18;;
21360;SDS011;10839;43.206;23.550;2023-06-26T08:16:40;5.88;;;4.88;;
21360;SDS011;10839;43.206;23.550;2023-06-26T08:19:09;5.18;;;4.28;;
21360;SDS011;10839;43.206;23.550;2023-06-26T08:21:35;14.98;;;9.98;;
21360;SDS011;10839;43.206;23.550;2023-06-26T08:24:01;23.60;;;19.38;;
21360;SDS011;10839;43.206;23.550;2023-06-26T08:26:28;8.60;;;7.30;;
21360;SDS011;10839;43.206;23.550;2023-06-26T08:28:54;7.22;;;6.20;;
21360;SDS011;10839;43.206;23.550;2023-06-26T08:31:20;9.82;;;6.30;;
21360;SDS011;10839;43.206;23.550;2023-06-26T08:33:47;8.77;;;6.22;;
21360;SDS011;10839;43.206;23.550;2023-06-26T08:36:13;5.60;;;5.00;;
21360;SDS011;10839;43.206;23.550;2023-06-26T08:38:39;5.72;;;5.18;;
21360;SDS011;10839;43.206;23.550;2023-06-26T08:41:08;5.30;;;4.80;;
21360;SDS011;10839;43.206;23.550;2023-06-26T08:43:34;12.23;;;8.63;;
21360;SDS011;10839;43.206;23.550;2023-06-26T08:46:02;8.45;;;6.10;;
21360;SDS011;10839;43.206;23.550;2023-06-26T08:48:31;28.55;;;24.10;;
21360;SDS011;10839;43.206;23.550;2023-06-26T08:51:01;13.60;;;9.68;;
21360;SDS011;10839;43.206;23.550;2023-06-26T08:56:06;7.25;;;6.53;;
21360;SDS011;10839;43.206;23.550;2023-06-26T08:58:32;7.50;;;5.90;;
21360;SDS011;10839;43.206;23.550;2023-06-26T09:01:00;6.97;;;4.97;;
21360;SDS011;10839;43.206;23.550;2023-06-26T09:03:26;5.65;;;4.82;;
21360;SDS011;10839;43.206;23.550;2023-06-26T09:05:52;5.93;;;4.90;;
21360;SDS011;10839;43.206;23.550;2023-06-26T09:08:18;5.68;;;4.72;;
21360;SDS011;10839;43.206;23.550;2023-06-26T09:10:44;4.85;;;4.18;;
21360;SDS011;10839;43.206;23.550;2023-06-26T09:13:10;6.85;;;4.63;;
21360;SDS011;10839;43.206;23.550;2023-06-26T09:15:37;5.05;;;4.20;;
21360;SDS011;10839;43.206;23.550;2023-06-26T09:18:04;6.93;;;5.03;;
21360;SDS011;10839;43.206;23.550;2023-06-26T09:20:30;18.05;;;9.32;;
21360;SDS011;10839;43.206;23.550;2023-06-26T09:23:00;19.35;;;15.13;;
21360;SDS011;10839;43.206;23.550;2023-06-26T09:25:26;14.85;;;11.45;;
21360;SDS011;10839;43.206;23.550;2023-06-26T09:27:54;14.07;;;8.20;;
21360;SDS011;10839;43.206;23.550;2023-06-26T09:30:22;7.78;;;5.85;;
21360;SDS011;10839;43.206;23.550;2023-06-26T09:32:48;7.28;;;6.28;;
21360;SDS011;10839;43.206;23.550;2023-06-26T09:35:16;13.77;;;10.60;;
21360;SDS011;10839;43.206;23.550;2023-06-26T09:37:43;6.82;;;5.72;;
21360;SDS011;10839;43.206;23.550;2023-06-26T09:40:08;5.65;;;5.00;;
21360;SDS011;10839;43.206;23.550;2023-06-26T09:42:35;7.40;;;5.28;;
21360;SDS011;10839;43.206;23.550;2023-06-26T09:45:01;5.53;;;4.25;;
21360;SDS011;10839;43.206;23.550;2023-06-26T09:47:30;4.70;;;4.15;;
21360;SDS011;10839;43.206;23.550;2023-06-26T09:49:57;7.22;;;4.68;;
21360;SDS011;10839;43.206;23.550;2023-06-26T09:52:25;4.80;;;4.35;;
21360;SDS011;10839;43.206;23.550;2023-06-26T09:55:09;5.07;;;4.25;;
21360;SDS011;10839;43.206;23.550;2023-06-26T09:57:35;5.72;;;4.50;;
21360;SDS011;10839;43.206;23.550;2023-06-26T10:00:02;10.60;;;7.95;;
21360;SDS011;10839;43.206;23.550;2023-06-26T10:02:37;4.97;;;3.63;;
21360;SDS011;10839;43.206;23.550;2023-06-26T10:05:03;7.43;;;4.22;;
21360;SDS011;10839;43.206;23.550;2023-06-26T10:07:29;5.45;;;4.03;;
21360;SDS011;10839;43.206;23.550;2023-06-26T10:09:55;4.28;;;3.83;;
21360;SDS011;10839;43.206;23.550;2023-06-26T10:12:29;7.57;;;4.30;;
21360;SDS011;10839;43.206;23.550;2023-06-26T10:14:57;4.70;;;4.13;;
21360;SDS011;10839;43.206;23.550;2023-06-26T10:17:24;5.40;;;4.00;;
21360;SDS011;10839;43.206;23.550;2023-06-26T10:19:54;6.20;;;4.07;;
21360;SDS011;10839;43.206;23.550;2023-06-26T10:22:24;4.75;;;4.07;;
21360;SDS011;10839;43.206;23.550;2023-06-26T10:24:55;5.55;;;3.60;;
21360;SDS011;10839;43.206;23.550;2023-06-26T10:27:25;8.27;;;3.47;;
21360;SDS011;10839;43.206;23.550;2023-06-26T10:30:00;4.70;;;3.75;;
21360;SDS011;10839;43.206;23.550;2023-06-26T10:32:30;7.05;;;5.30;;
21360;SDS011;10839;43.206;23.550;2023-06-26T10:34:56;4.57;;;3.70;;
21360;SDS011;10839;43.206;23.550;2023-06-26T10:40:11;4.57;;;3.72;;
21360;SDS011;10839;43.206;23.550;2023-06-26T10:42:39;4.43;;;3.95;;
21360;SDS011;10839;43.206;23.550;2023-06-26T10:45:28;4.75;;;3.78;;
21360;SDS011;10839;43.206;23.550;2023-06-26T10:47:55;6.57;;;4.07;;
21360;SDS011;10839;43.206;23.550;2023-06-26T10:50:24;7.35;;;3.85;;
21360;SDS011;10839;43.206;23.550;2023-06-26T10:55:57;5.15;;;4.30;;
21360;SDS011;10839;43.206;23.550;2023-06-26T10:58:28;5.90;;;4.20;;
21360;SDS011;10839;43.206;23.550;2023-06-26T11:01:23;6.63;;;3.90;;
21360;SDS011;10839;43.206;23.550;2023-06-26T11:06:31;5.40;;;4.10;;
21360;SDS011;10839;43.206;23.550;2023-06-26T11:14:25;7.38;;;3.28;;
21360;SDS011;10839;43.206;23.550;2023-06-26T11:16:52;6.95;;;4.15;;
21360;SDS011;10839;43.206;23.550;2023-06-26T11:19:20;9.65;;;4.78;;
21360;SDS011;10839;43.206;23.550;2023-06-26T11:21:46;5.13;;;4.00;;
21360;SDS011;10839;43.206;23.550;2023-06-26T11:24:13;6.53;;;4.25;;
21360;SDS011;10839;43.206;23.550;2023-06-26T11:26:43;5.13;;;4.25;;
21360;SDS011;10839;43.206;23.550;2023-06-26T11:29:10;4.65;;;3.92;;
21360;SDS011;10839;43.206;23.550;2023-06-26T11:31:57;6.00;;;4.53;;
21360;SDS011;10839;43.206;23.550;2023-06-26T11:35:09;5.90;;;4.28;;
21360;SDS011;10839;43.206;23.550;2023-06-26T11:37:36;6.85;;;4.10;;
21360;SDS011;10839;43.206;23.550;2023-06-26T11:40:18;5.70;;;3.92;;
21360;SDS011;10839;43.206;23.550;2023-06-26T11:42:45;5.75;;;4.35;;
21360;SDS011;10839;43.206;23.550;2023-06-26T11:45:10;7.57;;;4.07;;
21360;SDS011;10839;43.206;23.550;2023-06-26T11:47:37;8.05;;;4.45;;
21360;SDS011;10839;43.206;23.550;2023-06-26T11:50:04;4.15;;;3.55;;
21360;SDS011;10839;43.206;23.550;2023-06-26T11:52:32;5.45;;;4.25;;
21360;SDS011;10839;43.206;23.550;2023-06-26T11:54:58;8.25;;;4.90;;
21360;SDS011;10839;43.206;23.550;2023-06-26T11:57:25;7.93;;;6.00;;
21360;SDS011;10839;43.206;23.550;2023-06-26T11:59:50;9.80;;;5.85;;
21360;SDS011;10839;43.206;23.550;2023-06-26T12:02:17;5.32;;;4.03;;
21360;SDS011;10839;43.206;23.550;2023-06-26T12:04:43;7.78;;;5.43;;
21360;SDS011;10839;43.206;23.550;2023-06-26T12:07:10;6.57;;;4.13;;
21360;SDS011;10839;43.206;23.550;2023-06-26T12:09:38;7.65;;;4.20;;
21360;SDS011;10839;43.206;23.550;2023-06-26T12:12:06;6.63;;;4.10;;
21360;SDS011;10839;43.206;23.550;2023-06-26T12:14:33;5.00;;;4.00;;
21360;SDS011;10839;43.206;23.550;2023-06-26T12:17:09;8.57;;;4.50;;
21360;SDS011;10839;43.206;23.550;2023-06-26T12:19:37;6.15;;;3.95;;
21360;SDS011;10839;43.206;23.550;2023-06-26T12:22:07;7.70;;;5.07;;
21360;SDS011;10839;43.206;23.550;2023-06-26T12:24:35;7.00;;;4.47;;
21360;SDS011;10839;43.206;23.550;2023-06-26T12:27:07;4.47;;;3.63;;
21360;SDS011;10839;43.206;23.550;2023-06-26T12:29:35;5.35;;;3.65;;
21360;SDS011;10839;43.206;23.550;2023-06-26T12:32:02;7.72;;;4.03;;
21360;SDS011;10839;43.206;23.550;2023-06-26T12:34:30;9.57;;;6.63;;
21360;SDS011;10839;43.206;23.550;2023-06-26T12:37:04;19.55;;;13.35;;
21360;SDS011;10839;43.206;23.550;2023-06-26T12:42:18;11.23;;;4.80;;
21360;SDS011;10839;43.206;23.550;2023-06-26T12:44:49;4.03;;;3.42;;
21360;SDS011;10839;43.206;23.550;2023-06-26T12:47:16;4.97;;;4.05;;
21360;SDS011;10839;43.206;23.550;2023-06-26T12:49:44;5.55;;;4.60;;
21360;SDS011;10839;43.206;23.550;2023-06-26T12:52:15;4.60;;;3.65;;
21360;SDS011;10839;43.206;23.550;2023-06-26T12:54:42;4.80;;;3.67;;
21360;SDS011;10839;43.206;23.550;2023-06-26T12:57:09;4.72;;;3.22;;
21360;SDS011;10839;43.206;23.550;2023-06-26T12:59:36;5.60;;;4.47;;
21360;SDS011;10839;43.206;23.550;2023-06-26T13:02:04;5.80;;;3.65;;
21360;SDS011;10839;43.206;23.550;2023-06-26T13:04:30;7.15;;;4.63;;
21360;SDS011;10839;43.206;23.550;2023-06-26T13:06:56;6.70;;;4.53;;
21360;SDS011;10839;43.206;23.550;2023-06-26T13:09:23;10.20;;;6.05;;
21360;SDS011;10839;43.206;23.550;2023-06-26T13:11:51;10.73;;;4.40;;
21360;SDS011;10839;43.206;23.550;2023-06-26T13:14:17;6.70;;;3.40;;
21360;SDS011;10839;43.206;23.550;2023-06-26T13:16:43;6.28;;;3.60;;
21360;SDS011;10839;43.206;23.550;2023-06-26T13:19:09;5.03;;;3.78;;
21360;SDS011;10839;43.206;23.550;2023-06-26T13:21:35;5.75;;;4.93;;
21360;SDS011;10839;43.206;23.550;2023-06-26T13:24:02;5.97;;;4.72;;
21360;SDS011;10839;43.206;23.550;2023-06-26T13:26:29;4.60;;;4.10;;
21360;SDS011;10839;43.206;23.550;2023-06-26T13:28:55;4.35;;;3.70;;
21360;SDS011;10839;43.206;23.550;2023-06-26T13:31:21;5.75;;;3.97;;
21360;SDS011;10839;43.206;23.550;2023-06-26T13:33:48;7.78;;;5.00;;
21360;SDS011;10839;43.206;23.550;2023-06-26T13:36:19;4.18;;;3.72;;
21360;SDS011;10839;43.206;23.550;2023-06-26T13:38:47;6.25;;;4.20;;
21360;SDS011;10839;43.206;23.550;2023-06-26T13:41:15;6.28;;;3.67;;
21360;SDS011;10839;43.206;23.550;2023-06-26T13:43:41;6.13;;;4.68;;
21360;SDS011;10839;43.206;23.550;2023-06-26T13:46:07;8.98;;;3.33;;
21360;SDS011;10839;43.206;23.550;2023-06-26T13:48:32;6.75;;;3.85;;
21360;SDS011;10839;43.206;23.550;2023-06-26T13:50:58;5.28;;;3.75;;
21360;SDS011;10839;43.206;23.550;2023-06-26T13:53:25;5.75;;;3.35;;
21360;SDS011;10839;43.206;23.550;2023-06-26T13:55:51;5.78;;;3.25;;
21360;SDS011;10839;43.206;23.550;2023-06-26T13:58:17;5.90;;;3.10;;
21360;SDS011;10839;43.206;23.550;2023-06-26T14:00:44;4.55;;;3.20;;
21360;SDS011;10839;43.206;23.550;2023-06-26T14:03:10;6.03;;;3.65;;
21360;SDS011;10839;43.206;23.550;2023-06-26T14:05:36;3.63;;;3.13;;
21360;SDS011;10839;43.206;23.550;2023-06-26T14:08:03;5.50;;;3.92;;
21360;SDS011;10839;43.206;23.550;2023-06-26T14:10:30;5.43;;;3.63;;
21360;SDS011;10839;43.206;23.550;2023-06-26T14:12:58;21.40;;;16.35;;
21360;SDS011;10839;43.206;23.550;2023-06-26T14:15:25;9.02;;;5.22;;
21360;SDS011;10839;43.206;23.550;2023-06-26T14:17:52;6.47;;;4.18;;
21360;SDS011;10839;43.206;23.550;2023-06-26T14:20:17;4.45;;;3.42;;
21360;SDS011;10839;43.206;23.550;2023-06-26T14:22:47;4.97;;;3.30;;
21360;SDS011;10839;43.206;23.550;2023-06-26T14:25:13;7.43;;;4.07;;
21360;SDS011;10839;43.206;23.550;2023-06-26T14:27:41;6.03;;;3.35;;
21360;SDS011;10839;43.206;23.550;2023-06-26T14:30:07;4.00;;;3.45;;
21360;SDS011;10839;43.206;23.550;2023-06-26T14:32:34;5.68;;;4.00;;
21360;SDS011;10839;43.206;23.550;2023-06-26T14:35:00;5.45;;;3.58;;
21360;SDS011;10839;43.206;23.550;2023-06-26T14:37:28;6.60;;;3.65;;
21360;SDS011;10839;43.206;23.550;2023-06-26T14:39:56;7.13;;;3.90;;
21360;SDS011;10839;43.206;23.550;2023-06-26T14:42:23;7.03;;;3.95;;
21360;SDS011;10839;43.206;23.550;2023-06-26T14:44:48;39.70;;;29.45;;
21360;SDS011;10839;43.206;23.550;2023-06-26T14:47:16;18.30;;;12.88;;
21360;SDS011;10839;43.206;23.550;2023-06-26T14:49:42;12.88;;;10.35;;
21360;SDS011;10839;43.206;23.550;2023-06-26T14:52:08;6.38;;;5.15;;
21360;SDS011;10839;43.206;23.550;2023-06-26T14:54:34;7.78;;;4.18;;
21360;SDS011;10839;43.206;23.550;2023-06-26T14:57:05;4.57;;;3.67;;
21360;SDS011;10839;43.206;23.550;2023-06-26T14:59:32;10.18;;;4.10;;